PAL234 RPLL-RPVI
Flight info
| Callsign | PAL234 |
|---|---|
| Flight time | N/A |
| Altitude | 33000 |
| Route | VERDE2R VERDE W24 TAPER B472 LAMBO LAMBO2S |
| Aircraft | A20N/M-SDE2E3FGHIRWXY/LB1 |
Departure
| Time | 2026-05-04 06:21 |
|---|---|
| Airport | Ninoy Aquino International Airport (RPLL) |
Arrival
| Time | N/A |
|---|---|
| Airport | Iloilo International Airport (RPVI) |
| Time | Latitude | Longitude | Altitude | Speed | Heading |
|---|---|---|---|---|---|
| 2026-05-04 05:53 | 14.50886 | 121.01334 | 81 ft | 0 kts | 329° |
| 2026-05-04 06:07 | 14.50878 | 121.01340 | 82 ft | 2 kts | 329° |
| 2026-05-04 06:07 | 14.50865 | 121.01347 | 81 ft | 2 kts | 329° |
| 2026-05-04 06:08 | 14.50852 | 121.01356 | 81 ft | 2 kts | 329° |
| 2026-05-04 06:08 | 14.50839 | 121.01363 | 81 ft | 2 kts | 329° |
| 2026-05-04 06:08 | 14.50826 | 121.01372 | 81 ft | 2 kts | 329° |
| 2026-05-04 06:08 | 14.50817 | 121.01376 | 81 ft | 1 kts | 329° |
| 2026-05-04 06:09 | 14.50806 | 121.01387 | 81 ft | 2 kts | 296° |
| 2026-05-04 06:09 | 14.50802 | 121.01402 | 82 ft | 2 kts | 268° |
| 2026-05-04 06:11 | 14.50809 | 121.01421 | 81 ft | 0 kts | 240° |
| 2026-05-04 06:15 | 14.50808 | 121.01421 | 81 ft | 0 kts | 240° |
| 2026-05-04 06:15 | 14.50803 | 121.01411 | 81 ft | 2 kts | 242° |
| 2026-05-04 06:15 | 14.50794 | 121.01393 | 81 ft | 3 kts | 241° |
| 2026-05-04 06:15 | 14.50781 | 121.01369 | 81 ft | 4 kts | 240° |
| 2026-05-04 06:16 | 14.50763 | 121.01337 | 81 ft | 5 kts | 236° |
| 2026-05-04 06:16 | 14.50728 | 121.01316 | 81 ft | 6 kts | 183° |
| 2026-05-04 06:16 | 14.50681 | 121.01316 | 81 ft | 7 kts | 200° |
| 2026-05-04 06:16 | 14.50645 | 121.01275 | 81 ft | 8 kts | 240° |
| 2026-05-04 06:17 | 14.50612 | 121.01216 | 81 ft | 10 kts | 240° |
| 2026-05-04 06:17 | 14.50574 | 121.01148 | 81 ft | 11 kts | 240° |
| 2026-05-04 06:17 | 14.50531 | 121.01070 | 81 ft | 12 kts | 240° |
| 2026-05-04 06:17 | 14.50485 | 121.00987 | 81 ft | 14 kts | 241° |
| 2026-05-04 06:18 | 14.50442 | 121.00910 | 81 ft | 11 kts | 240° |
| 2026-05-04 06:18 | 14.50398 | 121.00831 | 81 ft | 13 kts | 240° |
| 2026-05-04 06:18 | 14.50350 | 121.00746 | 81 ft | 14 kts | 242° |
| 2026-05-04 06:20 | 14.50042 | 121.00477 | 81 ft | 8 kts | 60° |
| 2026-05-04 06:20 | 14.50079 | 121.00544 | 81 ft | 23 kts | 61° |
| 2026-05-04 06:21 | 14.51851 | 121.03613 | 1059 ft | 151 kts | 57° |
| 2026-05-04 06:21 | 14.52424 | 121.04511 | 1509 ft | 152 kts | 57° |
| 2026-05-04 06:22 | 14.52967 | 121.05459 | 1906 ft | 158 kts | 60° |
| 2026-05-04 06:22 | 14.53530 | 121.06546 | 2105 ft | 179 kts | 62° |
| 2026-05-04 06:25 | 14.48067 | 121.22874 | 10009 ft | 252 kts | 131° |
| 2026-05-04 06:25 | 14.46649 | 121.23951 | 10667 ft | 261 kts | 157° |
| 2026-05-04 06:26 | 14.44844 | 121.24171 | 11354 ft | 267 kts | 188° |
| 2026-05-04 06:26 | 14.43148 | 121.23449 | 12017 ft | 272 kts | 218° |
| 2026-05-04 06:26 | 14.41831 | 121.22037 | 12673 ft | 275 kts | 229° |
| 2026-05-04 06:26 | 14.40583 | 121.20531 | 13229 ft | 280 kts | 229° |
| 2026-05-04 06:27 | 14.35362 | 121.14447 | 15703 ft | 288 kts | 227° |
| 2026-05-04 06:28 | 14.34017 | 121.12909 | 16303 ft | 290 kts | 227° |
| 2026-05-04 06:28 | 14.32660 | 121.11359 | 16889 ft | 292 kts | 227° |
| 2026-05-04 06:28 | 14.31293 | 121.09798 | 17490 ft | 294 kts | 227° |
| 2026-05-04 06:28 | 14.29928 | 121.08236 | 18068 ft | 296 kts | 227° |
| 2026-05-04 06:29 | 14.28505 | 121.06693 | 18618 ft | 298 kts | 222° |
| 2026-05-04 06:29 | 14.26912 | 121.05305 | 19169 ft | 299 kts | 215° |
| 2026-05-04 06:29 | 14.25194 | 121.04057 | 19729 ft | 301 kts | 213° |
| 2026-05-04 06:29 | 14.23459 | 121.02842 | 20246 ft | 304 kts | 213° |
| 2026-05-04 06:30 | 14.21704 | 121.01617 | 20763 ft | 306 kts | 213° |
| 2026-05-04 06:30 | 14.19926 | 121.00372 | 21282 ft | 309 kts | 213° |
| 2026-05-04 06:30 | 14.18154 | 120.99128 | 21790 ft | 312 kts | 213° |
| 2026-05-04 06:30 | 14.16352 | 120.97860 | 22300 ft | 315 kts | 213° |
| 2026-05-04 06:31 | 14.14509 | 120.96563 | 22816 ft | 318 kts | 213° |
| 2026-05-04 06:31 | 14.12691 | 120.95283 | 23320 ft | 320 kts | 213° |
| 2026-05-04 06:31 | 14.10849 | 120.93986 | 23809 ft | 323 kts | 213° |
| 2026-05-04 06:31 | 14.08961 | 120.92657 | 24293 ft | 326 kts | 213° |
| 2026-05-04 06:32 | 14.07102 | 120.91346 | 24760 ft | 329 kts | 213° |
| 2026-05-04 06:33 | 13.91538 | 120.92599 | 27738 ft | 343 kts | 166° |
| 2026-05-04 06:34 | 13.89220 | 120.93196 | 28139 ft | 345 kts | 166° |
| 2026-05-04 06:34 | 13.86892 | 120.93791 | 28537 ft | 347 kts | 166° |
| 2026-05-04 06:34 | 13.84508 | 120.94400 | 28921 ft | 350 kts | 166° |
| 2026-05-04 06:34 | 13.82148 | 120.95003 | 29278 ft | 353 kts | 166° |
| 2026-05-04 06:35 | 13.79766 | 120.95613 | 29620 ft | 356 kts | 166° |
| 2026-05-04 06:36 | 13.62450 | 121.00051 | 31867 ft | 374 kts | 167° |
| 2026-05-04 06:37 | 13.59911 | 121.00702 | 32183 ft | 376 kts | 167° |
| 2026-05-04 06:37 | 13.57339 | 121.01360 | 32496 ft | 378 kts | 167° |
| 2026-05-04 06:37 | 13.54782 | 121.02017 | 32805 ft | 380 kts | 166° |
| 2026-05-04 06:37 | 13.52218 | 121.02797 | 33127 ft | 383 kts | 162° |
| 2026-05-04 06:38 | 13.49707 | 121.03756 | 33453 ft | 385 kts | 159° |
| 2026-05-04 06:38 | 13.47253 | 121.04902 | 33769 ft | 388 kts | 154° |
| 2026-05-04 06:40 | 13.30186 | 121.14562 | 34973 ft | 421 kts | 153° |
| 2026-05-04 06:40 | 13.27621 | 121.16016 | 34974 ft | 428 kts | 153° |
| 2026-05-04 06:40 | 13.22300 | 121.19031 | 34960 ft | 437 kts | 153° |
| 2026-05-04 06:41 | 13.16975 | 121.22051 | 34941 ft | 438 kts | 152° |
| 2026-05-04 06:41 | 13.11632 | 121.25082 | 34926 ft | 438 kts | 152° |
| 2026-05-04 06:42 | 13.06317 | 121.28101 | 34931 ft | 438 kts | 152° |
| 2026-05-04 06:44 | 12.84894 | 121.40225 | 34919 ft | 438 kts | 152° |
| 2026-05-04 06:44 | 12.79553 | 121.43237 | 34904 ft | 438 kts | 152° |
| 2026-05-04 06:45 | 12.74215 | 121.46250 | 34885 ft | 438 kts | 152° |
| 2026-05-04 06:45 | 12.69012 | 121.49193 | 34851 ft | 410 kts | 152° |
| 2026-05-04 06:46 | 12.64042 | 121.52010 | 34856 ft | 409 kts | 152° |
| 2026-05-04 06:46 | 12.59065 | 121.54825 | 34854 ft | 407 kts | 152° |
| 2026-05-04 06:48 | 12.42109 | 121.64403 | 34851 ft | 373 kts | 152° |
| 2026-05-04 06:48 | 12.39834 | 121.65691 | 34851 ft | 372 kts | 152° |
| 2026-05-04 06:50 | 12.21636 | 121.75994 | 34857 ft | 373 kts | 152° |
| 2026-05-04 06:51 | 12.17077 | 121.78559 | 34858 ft | 373 kts | 152° |
| 2026-05-04 06:51 | 12.12521 | 121.81121 | 34859 ft | 373 kts | 152° |
| 2026-05-04 06:52 | 12.07957 | 121.83683 | 34858 ft | 373 kts | 152° |
| 2026-05-04 06:52 | 12.03403 | 121.86245 | 34857 ft | 373 kts | 152° |
| 2026-05-04 06:53 | 11.98865 | 121.88797 | 34859 ft | 374 kts | 152° |
| 2026-05-04 06:53 | 11.94285 | 121.91368 | 34852 ft | 374 kts | 152° |
| 2026-05-04 06:54 | 11.89745 | 121.93916 | 34842 ft | 373 kts | 152° |
| 2026-05-04 06:54 | 11.85175 | 121.96467 | 34837 ft | 373 kts | 152° |
| 2026-05-04 06:55 | 11.80630 | 121.99005 | 34835 ft | 372 kts | 152° |
| 2026-05-04 06:55 | 11.76057 | 122.01567 | 34835 ft | 372 kts | 152° |
| 2026-05-04 06:57 | 11.57858 | 122.11761 | 34860 ft | 373 kts | 152° |
| 2026-05-04 06:58 | 11.53291 | 122.14318 | 34871 ft | 373 kts | 152° |
| 2026-05-04 06:58 | 11.48743 | 122.16863 | 34879 ft | 373 kts | 152° |
| 2026-05-04 06:59 | 11.44194 | 122.19408 | 34893 ft | 373 kts | 152° |
| 2026-05-04 06:59 | 11.39652 | 122.21948 | 34763 ft | 368 kts | 152° |
| 2026-05-04 07:01 | 11.23778 | 122.30656 | 29634 ft | 406 kts | 153° |
| 2026-05-04 07:01 | 11.21171 | 122.31939 | 28066 ft | 431 kts | 154° |
| 2026-05-04 07:02 | 11.18388 | 122.33240 | 26338 ft | 456 kts | 155° |
| 2026-05-04 07:02 | 11.15473 | 122.34606 | 24705 ft | 473 kts | 149° |
| 2026-05-04 07:02 | 11.12944 | 122.36708 | 23664 ft | 471 kts | 128° |
| 2026-05-04 07:02 | 11.11390 | 122.39542 | 23294 ft | 454 kts | 108° |
| 2026-05-04 07:03 | 11.10952 | 122.42631 | 23055 ft | 438 kts | 87° |
| 2026-05-04 07:03 | 11.11641 | 122.45574 | 22814 ft | 424 kts | 65° |
| 2026-05-04 07:03 | 11.13329 | 122.47965 | 22596 ft | 412 kts | 45° |
| 2026-05-04 07:03 | 11.15390 | 122.49944 | 22401 ft | 399 kts | 49° |
| 2026-05-04 07:04 | 11.16874 | 122.52250 | 22189 ft | 384 kts | 70° |
| 2026-05-04 07:04 | 11.17451 | 122.54884 | 21202 ft | 396 kts | 87° |
| 2026-05-04 07:04 | 11.17031 | 122.57669 | 19032 ft | 437 kts | 110° |
| 2026-05-04 07:04 | 11.15375 | 122.60345 | 17081 ft | 460 kts | 129° |
| 2026-05-04 07:05 | 11.13134 | 122.62569 | 16965 ft | 442 kts | 143° |